CYXU

London Airport

London, Ontario, Canada
TAF AMD CYXU 251604Z 2516/2612 19015KT 2SM RA BR OVC005 TEMPO 2516/2518 P6SM -RA SCT006 OVC010 FM251800 19015G25KT 5SM -SHRA BR BKN007 OVC015 TEMPO 2518/2601 P6SM NSW SCT008 OVC015 FM260100 20012G22KT 6SM -SHRA BR SCT008 BKN025 TEMPO 2601/2612 2SM SHRA BR VCTS OVC008CB BECMG 2610/2612 27012G22KT RMK NXT FCST BY 251800Z
Issued Valid From Valid To
Sep-25 @ 16:04 UTC
(60 minutes ago)
Sep-25 @ 16:00 UTC
(an hour ago)
Sep-26 @ 12:00 UTC
(in 19 hours)
Sep-25 @ 16:00 to Sep-25 @ 18:00
TAF AMD CYXU 251604Z 2516/2612 19015KT 2SM RA BR OVC005
Wind Visibility Clouds Conditions
190° at 15 knots 2 miles
  • Overcast at 500' AGL
  • Rain
  • Mist
Temporary Sep-25 @ 16:00 to Sep-25 @ 18:00
TEMPO 2516/2518 P6SM -RA SCT006 OVC010
Visibility Clouds Conditions
Greater than 6 miles
  • Scattered at 600' AGL
  • Overcast at 1,000' AGL
  • Light Rain
From Sep-25 @ 18:00 to Sep-26 @ 01:00
FM251800 19015G25KT 5SM -SHRA BR BKN007 OVC015
Wind Visibility Clouds Conditions
190° at 15 knots
 Gusting to 25 knots
5 miles
  • Broken at 700' AGL
  • Overcast at 1,500' AGL
  • Light Rain
  • Mist
Temporary Sep-25 @ 18:00 to Sep-26 @ 01:00
TEMPO 2518/2601 P6SM NSW SCT008 OVC015
Visibility Clouds Conditions
Greater than 6 miles
  • Scattered at 800' AGL
  • Overcast at 1,500' AGL
From Sep-26 @ 01:00 to Sep-26 @ 10:00
FM260100 20012G22KT 6SM -SHRA BR SCT008 BKN025
Wind Visibility Clouds Conditions
200° at 12 knots
 Gusting to 22 knots
6 miles
  • Scattered at 800' AGL
  • Broken at 2,500' AGL
  • Light Rain
  • Mist
Temporary Sep-26 @ 01:00 to Sep-26 @ 12:00
TEMPO 2601/2612 2SM SHRA BR VCTS OVC008CB
Visibility Clouds Conditions
2 miles
  • Overcast at 800' AGL
  • Rain
  • Mist
  • Area Thunderstorm
Becoming Sep-26 @ 10:00 to Sep-26 @ 12:00
BECMG 2610/2612 27012G22KT RMK NXT FCST BY 251800Z
Wind Visibility Clouds Conditions
270° at 12 knots
 Gusting to 22 knots
6 miles
  • Scattered at 800' AGL
  • Broken at 2,500' AGL
  • Light Rain
  • Mist
TAF AMD CYXU 251604Z 2516/2612 19015KT 2SM RA BR OVC005 TEMPO 2516/2518 P6SM -RA SCT006 OVC010 FM251800 19015G25KT 5SM -SHRA BR BKN007 OVC015 TEMPO 2518/2601 P6SM NSW SCT008 OVC015 FM260100 20012G22KT 6SM -SHRA BR SCT008 BKN025 TEMPO 2601/2612 2SM SHRA BR VCTS OVC008CB BECMG 2610/2612 27012G22KT RMK NXT FCST BY 251800Z
Issued Sep-25 @ 16:04 UTC
(60 minutes ago)
Valid From Sep-25 @ 16:00 UTC
(an hour ago)
Valid To Sep-26 @ 12:00 UTC
(in 19 hours)
Sep-25 @ 16:00 - Sep-25 @ 18:00
Wind Visibility
190° at 15 knots 2 miles
Clouds
  • Overcast at 500' AGL
Conditions
  • Rain
  • Mist
Temporary Sep-25 @ 16:00 - Sep-25 @ 18:00
Clouds
  • Scattered at 600' AGL
  • Overcast at 1,000' AGL
Conditions
  • Light Rain
From Sep-25 @ 18:00 - Sep-26 @ 01:00
Wind Visibility
190° at 15 knots
 Gusting to 25 knots
5 miles
Clouds
  • Broken at 700' AGL
  • Overcast at 1,500' AGL
Conditions
  • Light Rain
  • Mist
Temporary Sep-25 @ 18:00 - Sep-26 @ 01:00
Clouds
  • Scattered at 800' AGL
  • Overcast at 1,500' AGL
Conditions
From Sep-26 @ 01:00 - Sep-26 @ 10:00
Wind Visibility
200° at 12 knots
 Gusting to 22 knots
6 miles
Clouds
  • Scattered at 800' AGL
  • Broken at 2,500' AGL
Conditions
  • Light Rain
  • Mist
Temporary Sep-26 @ 01:00 - Sep-26 @ 12:00
Clouds
  • Overcast at 800' AGL
Conditions
  • Rain
  • Mist
  • Area Thunderstorm
Becoming Sep-26 @ 10:00 - Sep-26 @ 12:00
Wind Visibility
270° at 12 knots
 Gusting to 22 knots
6 miles
Clouds
  • Scattered at 800' AGL
  • Broken at 2,500' AGL
Conditions
  • Light Rain
  • Mist